Time;durP1;ratioP1;P1;durP2;ratioP2;P2;SDS_P1;SDS_P2;PMS_P1;PMS_P2;Temp;Humidity;BMP_temperature;BMP_pressure;BME280_temperature;BME280_humidity;BME280_pressure;Samples;Min_cycle;Max_cycle;Signal;HPM_P1;HPM_P2
2021/12/26 00:01:40;;;;;;;;;;;-0.30;99.90;;;;;;5107956;28;19985;-78
2021/12/26 00:04:12;;;;;;;;;;;-0.30;99.90;;;;;;5107107;28;20018;-78
2021/12/26 00:06:40;;;;;;;;;;;-0.20;99.90;;;;;;5097995;28;19981;-78
2021/12/26 00:09:07;;;;;;;;;;;-0.20;99.90;;;;;;5096178;28;20370;-78
2021/12/26 00:11:34;;;;;;;;;;;-0.20;99.90;;;;;;5106784;28;19966;-78
2021/12/26 00:14:00;;;;;;;;;;;-0.20;99.90;;;;;;5097512;28;19927;-78
2021/12/26 00:16:27;;;;;;;;;;;-0.20;99.90;;;;;;5097810;28;19963;-79
2021/12/26 00:18:57;;;;;;;;;;;-0.20;99.90;;;;;;5108862;28;19978;-78
2021/12/26 00:21:24;;;;;;;;;;;-0.30;99.90;;;;;;5101917;28;19924;-78
2021/12/26 00:23:51;;;;;;;;;;;-0.20;99.90;;;;;;5095286;28;20413;-78
2021/12/26 00:26:17;;;;;;;;;;;-0.20;99.90;;;;;;5101687;28;20015;-78
2021/12/26 00:28:45;;;;;;;;;;;-0.20;99.90;;;;;;5107664;27;20010;-78
2021/12/26 00:31:13;;;;;;;;;;;-0.20;99.90;;;;;;5094034;28;19930;-78
2021/12/26 00:33:40;;;;;;;;;;;-0.30;99.90;;;;;;5103650;28;19927;-77
2021/12/26 00:36:07;;;;;;;;;;;-0.20;99.90;;;;;;5096492;28;19955;-78
2021/12/26 00:38:34;;;;;;;;;;;-0.20;99.90;;;;;;5104042;28;20290;-78
2021/12/26 00:41:01;;;;;;;;;;;-0.20;99.90;;;;;;5103182;28;19963;-78
2021/12/26 00:43:28;;;;;;;;;;;-0.20;99.90;;;;;;5093751;28;19968;-78
2021/12/26 00:45:55;;;;;;;;;;;-0.20;99.90;;;;;;5100595;28;19919;-78
2021/12/26 00:48:22;;;;;;;;;;;-0.20;99.90;;;;;;5099672;28;20050;-78
2021/12/26 00:50:49;;;;;;;;;;;-0.20;99.90;;;;;;5100496;28;19924;-78
2021/12/26 00:53:16;;;;;;;;;;;-0.20;99.90;;;;;;5100777;28;19930;-78
2021/12/26 00:55:43;;;;;;;;;;;-0.20;99.90;;;;;;5093966;28;19923;-78
2021/12/26 00:58:09;;;;;;;;;;;-0.20;99.90;;;;;;5097797;27;19946;-81
2021/12/26 01:00:38;;;;;;;;;;;-0.20;99.90;;;;;;5091630;28;20011;-79
2021/12/26 01:03:06;;;;;;;;;;;-0.20;99.90;;;;;;5101580;28;19920;-78
2021/12/26 01:05:36;;;;;;;;;;;-0.20;99.90;;;;;;5097452;28;19928;-78
2021/12/26 01:08:04;;;;;;;;;;;-0.10;99.90;;;;;;5099600;28;19927;-78
2021/12/26 01:10:53;;;;;;;;;;;-0.10;99.90;;;;;;5094758;28;19920;-78
2021/12/26 01:13:33;;;;;;;;;;;-0.20;99.90;;;;;;5095333;28;19924;-78
2021/12/26 01:16:02;;;;;;;;;;;-0.20;99.90;;;;;;5104369;28;19920;-78
2021/12/26 01:18:32;;;;;;;;;;;-0.20;99.90;;;;;;5099688;28;19974;-78
2021/12/26 01:21:15;;;;;;;;;;;-0.20;99.90;;;;;;5107429;28;19955;-78
2021/12/26 01:23:43;;;;;;;;;;;-0.10;99.90;;;;;;5103316;28;19934;-78
2021/12/26 01:26:14;;;;;;;;;;;-0.10;99.90;;;;;;5100642;28;20002;-78
2021/12/26 01:28:41;;;;;;;;;;;-0.10;99.90;;;;;;5109961;28;19930;-78
2021/12/26 01:31:08;;;;;;;;;;;-0.10;99.90;;;;;;5095929;28;20015;-78
2021/12/26 01:33:35;;;;;;;;;;;-0.10;99.90;;;;;;5098994;28;19928;-77
2021/12/26 01:36:02;;;;;;;;;;;-0.10;99.90;;;;;;5098778;28;20284;-77
2021/12/26 01:38:28;;;;;;;;;;;-0.10;99.90;;;;;;5107036;27;20014;-77
2021/12/26 01:40:56;;;;;;;;;;;-0.10;99.90;;;;;;5100524;27;19920;-77
2021/12/26 01:43:25;;;;;;;;;;;-0.10;99.90;;;;;;5106218;28;20019;-77
2021/12/26 01:45:52;;;;;;;;;;;-0.10;99.90;;;;;;5089950;28;20423;-77
2021/12/26 01:48:20;;;;;;;;;;;-0.10;99.90;;;;;;5111876;27;19920;-77
2021/12/26 01:50:48;;;;;;;;;;;-0.10;99.90;;;;;;5107284;28;19926;-77
2021/12/26 01:53:15;;;;;;;;;;;-0.10;99.90;;;;;;5102463;27;20010;-77
2021/12/26 01:55:44;;;;;;;;;;;-0.10;99.90;;;;;;5126257;27;20002;-77
2021/12/26 01:58:22;;;;;;;;;;;-0.10;99.90;;;;;;5108276;28;20377;-77
2021/12/26 02:00:50;;;;;;;;;;;-0.10;99.90;;;;;;5099732;27;20006;-78
2021/12/26 02:03:17;;;;;;;;;;;-0.10;99.90;;;;;;5116639;27;19972;-77
2021/12/26 02:05:44;;;;;;;;;;;-0.10;99.90;;;;;;5107998;28;19923;-78
2021/12/26 02:08:11;;;;;;;;;;;-0.10;99.90;;;;;;5109054;28;19920;-77
2021/12/26 02:10:38;;;;;;;;;;;-0.10;99.90;;;;;;5095251;28;19924;-78
2021/12/26 02:13:05;;;;;;;;;;;-0.10;99.90;;;;;;5096880;28;19920;-77
2021/12/26 02:15:32;;;;;;;;;;;-0.10;99.90;;;;;;5101836;28;20003;-78
2021/12/26 02:17:58;;;;;;;;;;;0.00;99.90;;;;;;5094281;28;19927;-77
2021/12/26 02:20:36;;;;;;;;;;;0.00;99.90;;;;;;5100538;28;20015;-77
2021/12/26 02:23:11;;;;;;;;;;;-0.10;99.90;;;;;;5111398;28;19926;-77
2021/12/26 02:28:11;;;;;;;;;;;0.00;99.90;;;;;;5102914;27;19999;-78
2021/12/26 02:30:38;;;;;;;;;;;0.00;99.90;;;;;;5096876;28;20030;-78
2021/12/26 02:33:08;;;;;;;;;;;0.00;99.90;;;;;;5111629;28;19928;-77
2021/12/26 02:35:34;;;;;;;;;;;0.00;99.90;;;;;;5104407;28;21086;-78
2021/12/26 02:38:01;;;;;;;;;;;0.00;99.90;;;;;;5094840;28;19927;-78
2021/12/26 02:40:28;;;;;;;;;;;0.00;99.90;;;;;;5097929;28;19926;-77
2021/12/26 02:42:55;;;;;;;;;;;0.00;99.90;;;;;;5095815;28;19920;-77
2021/12/26 02:45:22;;;;;;;;;;;0.00;99.90;;;;;;5103176;28;19941;-78
2021/12/26 02:47:49;;;;;;;;;;;0.00;99.90;;;;;;5100099;28;20382;-78
2021/12/26 02:50:16;;;;;;;;;;;0.00;99.90;;;;;;5101758;28;19959;-77
2021/12/26 02:52:43;;;;;;;;;;;0.00;99.90;;;;;;5104712;28;19974;-77
2021/12/26 02:55:14;;;;;;;;;;;0.00;99.90;;;;;;5099664;28;20014;-77
2021/12/26 02:57:45;;;;;;;;;;;0.00;99.90;;;;;;5114543;27;19927;-77
2021/12/26 03:00:13;;;;;;;;;;;0.00;99.90;;;;;;5103299;28;20006;-77
2021/12/26 03:02:45;;;;;;;;;;;0.00;99.90;;;;;;5109822;27;20483;-77
2021/12/26 03:05:12;;;;;;;;;;;0.00;99.90;;;;;;5100972;28;19967;-77
2021/12/26 03:07:40;;;;;;;;;;;-0.10;99.90;;;;;;5104813;28;20010;-77
2021/12/26 03:10:10;;;;;;;;;;;-0.10;99.90;;;;;;5094232;28;19928;-77
2021/12/26 03:12:41;;;;;;;;;;;-0.10;99.90;;;;;;5096120;28;20386;-76
2021/12/26 03:15:10;;;;;;;;;;;-0.20;99.90;;;;;;5111213;28;19920;-77
2021/12/26 03:17:38;;;;;;;;;;;-0.20;99.90;;;;;;5102913;28;19960;-76
2021/12/26 03:20:09;;;;;;;;;;;-0.20;99.90;;;;;;5104605;28;19966;-76
2021/12/26 03:22:36;;;;;;;;;;;-0.20;99.90;;;;;;5102025;28;20023;-76
2021/12/26 03:25:19;;;;;;;;;;;-0.20;99.90;;;;;;5098665;28;20369;-76
2021/12/26 03:27:49;;;;;;;;;;;-0.20;99.90;;;;;;5102545;28;20335;-76
2021/12/26 03:30:18;;;;;;;;;;;-0.20;99.90;;;;;;5096721;28;20034;-76
2021/12/26 03:32:50;;;;;;;;;;;-0.20;99.90;;;;;;5103998;27;19927;-77
2021/12/26 03:35:20;;;;;;;;;;;-0.20;99.90;;;;;;5099478;28;20717;-76
2021/12/26 03:37:47;;;;;;;;;;;-0.20;99.90;;;;;;5110874;28;19919;-76
2021/12/26 03:40:14;;;;;;;;;;;-0.20;99.90;;;;;;5108142;28;19928;-77
2021/12/26 03:42:40;;;;;;;;;;;-0.20;99.90;;;;;;5096624;28;19924;-76
2021/12/26 03:45:19;;;;;;;;;;;-0.20;99.90;;;;;;5105541;28;19919;-76
2021/12/26 03:47:49;;;;;;;;;;;-0.20;99.90;;;;;;5102442;27;20408;-76
2021/12/26 03:50:17;;;;;;;;;;;-0.20;99.90;;;;;;5100334;28;20613;-76
2021/12/26 03:52:45;;;;;;;;;;;-0.20;99.90;;;;;;5100127;28;19959;-76
2021/12/26 03:55:14;;;;;;;;;;;-0.20;99.90;;;;;;5104660;28;19959;-76
2021/12/26 03:57:41;;;;;;;;;;;-0.20;99.90;;;;;;5104969;27;19927;-76
2021/12/26 04:00:09;;;;;;;;;;;-0.20;99.90;;;;;;5092716;28;19927;-76
2021/12/26 04:02:36;;;;;;;;;;;-0.20;99.90;;;;;;5099681;28;19967;-75
2021/12/26 04:05:05;;;;;;;;;;;-0.20;99.90;;;;;;5089501;28;20010;-75
2021/12/26 04:07:32;;;;;;;;;;;-0.20;99.90;;;;;;5097723;28;19982;-75
2021/12/26 04:09:58;;;;;;;;;;;-0.10;99.90;;;;;;5092107;28;19920;-75
2021/12/26 04:12:25;;;;;;;;;;;-0.20;99.90;;;;;;5099328;28;19934;-76
2021/12/26 04:14:52;;;;;;;;;;;-0.20;99.90;;;;;;5097898;28;19920;-76
2021/12/26 04:17:21;;;;;;;;;;;-0.20;99.90;;;;;;5108253;28;19965;-76
2021/12/26 04:19:48;;;;;;;;;;;-0.20;99.90;;;;;;5096260;28;19920;-76
2021/12/26 04:22:15;;;;;;;;;;;-0.20;99.90;;;;;;5098205;27;19926;-75
2021/12/26 04:24:41;;;;;;;;;;;-0.20;99.90;;;;;;5107530;27;19926;-76
2021/12/26 04:27:08;;;;;;;;;;;-0.20;99.90;;;;;;5099824;28;20593;-76
2021/12/26 04:29:35;;;;;;;;;;;-0.20;99.90;;;;;;5100663;27;19938;-75
2021/12/26 04:32:01;;;;;;;;;;;-0.20;99.90;;;;;;5099022;28;19927;-76
2021/12/26 04:34:28;;;;;;;;;;;-0.20;99.90;;;;;;5096318;28;20414;-75
2021/12/26 04:36:55;;;;;;;;;;;-0.20;99.90;;;;;;5094341;28;19934;-75
2021/12/26 04:39:21;;;;;;;;;;;-0.20;99.90;;;;;;5097833;28;19920;-75
2021/12/26 04:41:48;;;;;;;;;;;-0.20;99.90;;;;;;5102013;28;19949;-76
2021/12/26 04:44:17;;;;;;;;;;;-0.20;99.90;;;;;;5101697;27;19924;-76
2021/12/26 04:46:44;;;;;;;;;;;-0.20;99.90;;;;;;5102543;28;20014;-76
2021/12/26 04:49:11;;;;;;;;;;;-0.20;99.90;;;;;;5097830;27;19920;-75
2021/12/26 04:51:37;;;;;;;;;;;-0.20;99.90;;;;;;5103832;28;20560;-75
2021/12/26 04:54:04;;;;;;;;;;;-0.20;99.90;;;;;;5102731;28;19923;-75
2021/12/26 04:56:33;;;;;;;;;;;-0.20;99.90;;;;;;5096853;28;19973;-75
2021/12/26 04:59:03;;;;;;;;;;;-0.20;99.90;;;;;;5100141;28;19928;-75
2021/12/26 05:01:30;;;;;;;;;;;-0.20;99.90;;;;;;5103983;28;19942;-75
2021/12/26 05:03:57;;;;;;;;;;;-0.20;99.90;;;;;;5093303;28;19924;-76
2021/12/26 05:06:27;;;;;;;;;;;-0.20;99.90;;;;;;5104274;28;19930;-76
2021/12/26 05:08:54;;;;;;;;;;;-0.20;99.90;;;;;;5095263;28;19931;-76
2021/12/26 05:11:21;;;;;;;;;;;-0.20;99.90;;;;;;5100578;27;19926;-76
2021/12/26 05:13:48;;;;;;;;;;;-0.20;99.90;;;;;;5101421;28;19919;-75
2021/12/26 05:16:14;;;;;;;;;;;-0.20;99.90;;;;;;5097939;28;20006;-76
2021/12/26 05:18:42;;;;;;;;;;;-0.20;99.90;;;;;;5096423;28;19927;-76
2021/12/26 05:21:09;;;;;;;;;;;-0.20;99.90;;;;;;5106631;28;19920;-75
2021/12/26 05:23:35;;;;;;;;;;;-0.20;99.90;;;;;;5096259;28;19942;-75
2021/12/26 05:26:02;;;;;;;;;;;-0.20;99.90;;;;;;5096535;28;20408;-75
2021/12/26 05:28:29;;;;;;;;;;;-0.10;99.90;;;;;;5107285;28;20031;-75
2021/12/26 05:30:56;;;;;;;;;;;-0.10;99.90;;;;;;5091975;28;19927;-75
2021/12/26 05:33:23;;;;;;;;;;;-0.20;99.90;;;;;;5092549;28;19926;-75
2021/12/26 05:35:49;;;;;;;;;;;-0.10;99.90;;;;;;5095127;28;20018;-76
2021/12/26 05:38:16;;;;;;;;;;;-0.10;99.90;;;;;;5111436;28;19920;-75
2021/12/26 05:40:43;;;;;;;;;;;-0.20;99.90;;;;;;5089408;28;19920;-76
2021/12/26 05:43:09;;;;;;;;;;;-0.10;99.90;;;;;;5093230;28;19920;-76
2021/12/26 05:45:38;;;;;;;;;;;-0.20;99.90;;;;;;5086672;28;20539;-75
2021/12/26 05:48:04;;;;;;;;;;;-0.20;99.90;;;;;;5099973;28;20010;-77
2021/12/26 05:50:31;;;;;;;;;;;-0.20;99.90;;;;;;5094568;28;19926;-75
2021/12/26 05:52:58;;;;;;;;;;;-0.20;99.90;;;;;;5100110;28;19920;-75
2021/12/26 05:55:24;;;;;;;;;;;-0.20;99.90;;;;;;5095593;28;19931;-75
2021/12/26 05:57:51;;;;;;;;;;;-0.10;99.90;;;;;;5097864;28;19920;-76
2021/12/26 06:00:18;;;;;;;;;;;-0.10;99.90;;;;;;5108999;28;19966;-76
2021/12/26 06:02:50;;;;;;;;;;;-0.20;99.90;;;;;;5096205;28;20037;-76
2021/12/26 06:05:18;;;;;;;;;;;-0.20;99.90;;;;;;5093628;28;19920;-75
2021/12/26 06:07:45;;;;;;;;;;;-0.20;99.90;;;;;;5095870;28;19946;-75
2021/12/26 06:10:17;;;;;;;;;;;-0.10;99.90;;;;;;5102931;28;20444;-75
2021/12/26 06:12:47;;;;;;;;;;;-0.10;99.90;;;;;;5115460;28;20018;-75
2021/12/26 06:15:13;;;;;;;;;;;-0.10;99.90;;;;;;5090813;28;19959;-75
2021/12/26 06:17:40;;;;;;;;;;;-0.10;99.90;;;;;;5095649;28;20001;-75
2021/12/26 06:20:13;;;;;;;;;;;-0.10;99.90;;;;;;5091040;28;20441;-75
2021/12/26 06:22:41;;;;;;;;;;;-0.10;99.90;;;;;;5103803;28;19932;-76
2021/12/26 06:25:09;;;;;;;;;;;-0.10;99.90;;;;;;5097119;28;19920;-75
2021/12/26 06:27:36;;;;;;;;;;;-0.10;99.90;;;;;;5106514;28;19920;-75
2021/12/26 06:30:04;;;;;;;;;;;-0.10;99.90;;;;;;5105134;28;19960;-75
2021/12/26 06:32:31;;;;;;;;;;;-0.10;99.90;;;;;;5101992;28;19920;-76
2021/12/26 06:34:58;;;;;;;;;;;-0.10;99.90;;;;;;5094399;28;19920;-75
2021/12/26 06:37:25;;;;;;;;;;;-0.10;99.90;;;;;;5101089;27;19959;-75
2021/12/26 06:39:52;;;;;;;;;;;0.00;99.90;;;;;;5097558;27;19920;-75
2021/12/26 06:42:19;;;;;;;;;;;0.00;99.90;;;;;;5109817;27;19977;-75
2021/12/26 06:44:46;;;;;;;;;;;0.00;99.90;;;;;;5106438;27;20006;-75
2021/12/26 06:47:13;;;;;;;;;;;0.00;99.90;;;;;;5102771;27;20018;-75
2021/12/26 06:49:41;;;;;;;;;;;0.00;99.90;;;;;;5101538;27;19955;-75
2021/12/26 06:52:07;;;;;;;;;;;0.00;99.90;;;;;;5100183;28;19950;-75
2021/12/26 06:54:36;;;;;;;;;;;0.00;99.90;;;;;;5103651;28;19923;-75
2021/12/26 06:57:04;;;;;;;;;;;0.00;99.90;;;;;;5108115;27;19923;-75
2021/12/26 06:59:30;;;;;;;;;;;0.00;99.90;;;;;;5099481;28;19928;-75
2021/12/26 07:01:57;;;;;;;;;;;0.00;99.90;;;;;;5092648;27;19920;-75
2021/12/26 07:04:24;;;;;;;;;;;0.00;99.90;;;;;;5100488;28;19942;-80
2021/12/26 07:06:50;;;;;;;;;;;0.00;99.90;;;;;;5104348;28;19955;-79
2021/12/26 07:09:20;;;;;;;;;;;0.00;99.90;;;;;;5100757;28;19930;-79
2021/12/26 07:11:47;;;;;;;;;;;0.00;99.90;;;;;;5101040;28;20010;-79
2021/12/26 07:14:14;;;;;;;;;;;0.10;99.90;;;;;;5096493;27;19927;-79
2021/12/26 07:16:41;;;;;;;;;;;0.10;99.90;;;;;;5119258;27;19923;-79
2021/12/26 07:19:08;;;;;;;;;;;0.10;99.90;;;;;;5116338;27;19933;-79
2021/12/26 07:21:34;;;;;;;;;;;0.10;99.90;;;;;;5111770;27;20022;-79
2021/12/26 07:24:03;;;;;;;;;;;0.10;99.90;;;;;;5101312;28;20467;-79
2021/12/26 07:26:33;;;;;;;;;;;0.10;99.90;;;;;;5102844;28;19924;-79
2021/12/26 07:29:09;;;;;;;;;;;0.10;99.90;;;;;;5102814;27;20431;-79
2021/12/26 07:31:35;;;;;;;;;;;0.10;99.90;;;;;;5105591;27;19927;-78
2021/12/26 07:34:02;;;;;;;;;;;0.10;99.90;;;;;;5107630;27;20297;-79
2021/12/26 07:36:29;;;;;;;;;;;0.10;99.90;;;;;;5103049;28;20007;-79
2021/12/26 07:38:55;;;;;;;;;;;0.10;99.90;;;;;;5101384;28;19920;-79
2021/12/26 07:41:22;;;;;;;;;;;0.10;99.90;;;;;;5101733;27;19930;-79
2021/12/26 07:43:49;;;;;;;;;;;0.10;99.90;;;;;;5100869;28;19962;-78
2021/12/26 07:46:16;;;;;;;;;;;0.10;99.90;;;;;;5101553;28;19955;-78
2021/12/26 07:48:43;;;;;;;;;;;0.10;99.90;;;;;;5100796;28;19924;-78
2021/12/26 07:51:10;;;;;;;;;;;0.10;99.90;;;;;;5105121;28;20010;-78
2021/12/26 07:53:37;;;;;;;;;;;0.10;99.90;;;;;;5094975;27;19998;-78
2021/12/26 07:56:04;;;;;;;;;;;0.10;99.90;;;;;;5099723;28;19920;-78
2021/12/26 07:58:33;;;;;;;;;;;0.10;99.90;;;;;;5095464;28;19924;-78
2021/12/26 08:01:02;;;;;;;;;;;0.10;99.90;;;;;;5102085;28;20014;-78
2021/12/26 08:03:29;;;;;;;;;;;0.10;99.90;;;;;;5103533;28;19920;-78
2021/12/26 08:05:56;;;;;;;;;;;0.10;99.90;;;;;;5093081;28;19924;-78
2021/12/26 08:08:22;;;;;;;;;;;0.10;99.90;;;;;;5092792;28;20370;-78
2021/12/26 08:10:56;;;;;;;;;;;0.20;99.90;;;;;;5100198;28;20868;-78
2021/12/26 08:13:23;;;;;;;;;;;0.20;99.90;;;;;;5105257;28;20333;-78
2021/12/26 08:15:50;;;;;;;;;;;0.20;99.90;;;;;;5093477;28;19926;-78
2021/12/26 08:18:18;;;;;;;;;;;0.20;99.90;;;;;;5099824;28;20003;-78
2021/12/26 08:20:44;;;;;;;;;;;0.20;99.90;;;;;;5103183;28;19989;-78
2021/12/26 08:23:11;;;;;;;;;;;0.20;99.90;;;;;;5101835;28;20010;-78
2021/12/26 08:25:49;;;;;;;;;;;0.20;99.90;;;;;;5104110;27;19923;-78
2021/12/26 08:28:16;;;;;;;;;;;0.20;99.90;;;;;;5097481;28;20002;-78
2021/12/26 08:30:43;;;;;;;;;;;0.20;99.90;;;;;;5102839;27;20021;-78
2021/12/26 08:33:10;;;;;;;;;;;0.20;99.90;;;;;;5098815;28;20388;-78
2021/12/26 08:35:38;;;;;;;;;;;0.20;99.90;;;;;;5092124;28;19934;-79
2021/12/26 08:38:07;;;;;;;;;;;0.20;99.90;;;;;;5100917;28;20460;-78
2021/12/26 08:40:33;;;;;;;;;;;0.20;99.90;;;;;;5095169;28;20417;-77
2021/12/26 08:43:00;;;;;;;;;;;0.20;99.90;;;;;;5104323;28;19923;-79
2021/12/26 08:45:28;;;;;;;;;;;0.10;99.90;;;;;;5108048;27;20400;-79
2021/12/26 08:47:55;;;;;;;;;;;0.00;99.90;;;;;;5100880;28;19932;-78
2021/12/26 08:50:23;;;;;;;;;;;0.00;99.90;;;;;;5096365;28;19930;-78
2021/12/26 08:52:49;;;;;;;;;;;0.00;99.90;;;;;;5101772;28;19928;-77
2021/12/26 08:55:17;;;;;;;;;;;0.00;99.90;;;;;;5103649;28;19924;-77
2021/12/26 08:57:44;;;;;;;;;;;0.00;99.90;;;;;;5097137;27;19928;-77
2021/12/26 09:00:12;;;;;;;;;;;0.00;99.90;;;;;;5100798;27;19928;-77
2021/12/26 09:02:39;;;;;;;;;;;0.10;99.90;;;;;;5102542;27;19930;-77
2021/12/26 09:05:06;;;;;;;;;;;0.20;99.90;;;;;;5099067;27;19932;-77
2021/12/26 09:07:32;;;;;;;;;;;0.30;99.90;;;;;;5100148;27;19924;-77
2021/12/26 09:10:03;;;;;;;;;;;0.30;99.90;;;;;;5098534;28;19924;-77
2021/12/26 09:12:30;;;;;;;;;;;0.30;99.90;;;;;;5097233;28;20018;-77
2021/12/26 09:14:56;;;;;;;;;;;0.40;99.90;;;;;;5109341;27;19924;-78
2021/12/26 09:17:23;;;;;;;;;;;0.40;99.90;;;;;;5096662;28;19930;-78
2021/12/26 09:19:50;;;;;;;;;;;0.40;99.90;;;;;;5090336;28;20378;-77
2021/12/26 09:22:17;;;;;;;;;;;0.40;99.90;;;;;;5096469;28;20881;-80
2021/12/26 09:24:45;;;;;;;;;;;0.50;99.90;;;;;;5093947;28;20063;-78
2021/12/26 09:27:14;;;;;;;;;;;0.50;99.90;;;;;;5099050;28;19924;-78
2021/12/26 09:29:41;;;;;;;;;;;0.50;99.90;;;;;;5102595;28;19930;-78
2021/12/26 09:32:08;;;;;;;;;;;0.50;99.90;;;;;;5110897;28;19924;-78
2021/12/26 09:34:35;;;;;;;;;;;0.50;99.90;;;;;;5091711;28;20019;-78
2021/12/26 09:37:09;;;;;;;;;;;0.60;99.90;;;;;;5093675;28;19924;-78
2021/12/26 09:39:39;;;;;;;;;;;0.60;99.90;;;;;;5093459;28;19974;-78
2021/12/26 09:42:06;;;;;;;;;;;0.70;99.90;;;;;;5098755;28;20442;-78
2021/12/26 09:44:32;;;;;;;;;;;0.80;99.90;;;;;;5100488;28;19924;-78
2021/12/26 09:47:01;;;;;;;;;;;0.80;99.90;;;;;;5089170;28;19931;-78
2021/12/26 09:49:28;;;;;;;;;;;0.80;99.90;;;;;;5092675;28;20393;-78
2021/12/26 09:51:55;;;;;;;;;;;0.80;99.90;;;;;;5097977;28;20018;-78
2021/12/26 09:54:21;;;;;;;;;;;0.90;99.90;;;;;;5100871;28;19947;-78
2021/12/26 09:56:48;;;;;;;;;;;0.90;99.90;;;;;;5092617;28;19924;-78
2021/12/26 09:59:16;;;;;;;;;;;0.90;99.90;;;;;;5099184;28;20747;-78
2021/12/26 10:01:44;;;;;;;;;;;1.00;99.90;;;;;;5102976;28;19924;-79
2021/12/26 10:04:37;;;;;;;;;;;1.10;99.90;;;;;;5113365;27;19930;-81
2021/12/26 10:07:05;;;;;;;;;;;1.20;99.90;;;;;;5110272;27;20038;-80
2021/12/26 10:09:57;;;;;;;;;;;1.20;99.90;;;;;;5105141;28;20317;-78
2021/12/26 10:12:23;;;;;;;;;;;1.30;99.90;;;;;;5069888;28;19939;-78
2021/12/26 10:14:54;;;;;;;;;;;1.30;99.90;;;;;;5072901;28;19999;-77
2021/12/26 10:17:31;;;;;;;;;;;1.30;99.90;;;;;;5052269;28;19925;-78
2021/12/26 10:20:00;;;;;;;;;;;1.30;99.90;;;;;;5050684;28;19952;-76
2021/12/26 10:22:29;;;;;;;;;;;1.30;99.90;;;;;;5068852;28;20433;-78
2021/12/26 10:24:57;;;;;;;;;;;1.30;99.90;;;;;;5072242;28;19928;-79
2021/12/26 10:27:30;;;;;;;;;;;1.20;99.90;;;;;;5049503;28;20589;-78
2021/12/26 10:29:59;;;;;;;;;;;1.20;99.90;;;;;;5064823;28;19925;-78
2021/12/26 10:32:25;;;;;;;;;;;1.30;99.90;;;;;;5071350;28;19951;-78
2021/12/26 10:34:53;;;;;;;;;;;1.20;99.90;;;;;;5070998;28;20015;-77
2021/12/26 10:37:32;;;;;;;;;;;1.20;99.90;;;;;;5050976;28;19925;-77
2021/12/26 10:40:06;;;;;;;;;;;1.10;99.90;;;;;;5062182;28;19963;-77
2021/12/26 10:42:35;;;;;;;;;;;1.10;99.90;;;;;;5057060;28;19925;-77
2021/12/26 10:45:02;;;;;;;;;;;1.10;99.90;;;;;;5066222;28;20289;-76
2021/12/26 10:47:31;;;;;;;;;;;1.00;99.90;;;;;;5048558;28;20035;-77
2021/12/26 10:50:03;;;;;;;;;;;1.10;99.90;;;;;;5097801;28;19923;-77
2021/12/26 10:52:35;;;;;;;;;;;1.00;99.90;;;;;;5103667;28;19928;-78
2021/12/26 10:55:06;;;;;;;;;;;1.00;99.90;;;;;;5102418;28;20011;-77
2021/12/26 10:57:37;;;;;;;;;;;1.10;99.90;;;;;;5094562;28;20588;-79
2021/12/26 11:00:07;;;;;;;;;;;1.00;99.90;;;;;;5104598;27;20015;-79
2021/12/26 11:02:40;;;;;;;;;;;1.00;99.90;;;;;;5104422;28;19924;-79
2021/12/26 11:05:09;;;;;;;;;;;1.00;99.90;;;;;;5098585;28;19932;-79
2021/12/26 11:07:47;;;;;;;;;;;0.90;99.90;;;;;;5095483;28;19927;-80
2021/12/26 11:10:19;;;;;;;;;;;0.90;99.90;;;;;;5105504;28;19959;-80
2021/12/26 11:12:47;;;;;;;;;;;0.90;99.90;;;;;;5101251;27;19971;-80
2021/12/26 11:15:14;;;;;;;;;;;1.00;99.90;;;;;;5113769;27;19924;-81
2021/12/26 11:17:47;;;;;;;;;;;1.00;99.90;;;;;;5099315;28;19952;-81
2021/12/26 11:20:18;;;;;;;;;;;1.10;99.90;;;;;;5095325;28;20015;-80
2021/12/26 11:22:48;;;;;;;;;;;1.10;99.90;;;;;;5105196;28;19924;-81
2021/12/26 11:25:14;;;;;;;;;;;1.10;99.90;;;;;;5093837;28;19924;-81
2021/12/26 11:27:41;;;;;;;;;;;1.00;99.90;;;;;;5101065;28;19924;-80
2021/12/26 11:30:09;;;;;;;;;;;1.10;99.90;;;;;;5094832;28;20018;-81
2021/12/26 11:32:36;;;;;;;;;;;1.10;99.90;;;;;;5099995;28;19927;-80
2021/12/26 11:35:04;;;;;;;;;;;1.20;99.90;;;;;;5101736;28;21756;-80
2021/12/26 11:37:37;;;;;;;;;;;1.20;99.90;;;;;;5108571;27;19977;-81
2021/12/26 11:40:10;;;;;;;;;;;1.20;99.90;;;;;;5107229;28;19988;-81
2021/12/26 11:42:59;;;;;;;;;;;1.20;99.90;;;;;;5100468;28;19932;-81
2021/12/26 11:45:30;;;;;;;;;;;1.20;99.90;;;;;;5086535;27;19934;-81
2021/12/26 11:47:59;;;;;;;;;;;1.20;99.90;;;;;;5101429;28;19949;-81
2021/12/26 11:50:44;;;;;;;;;;;1.20;99.90;;;;;;5097268;28;19928;-81
2021/12/26 11:53:32;;;;;;;;;;;1.10;99.90;;;;;;5106317;27;19927;-81
2021/12/26 11:55:58;;;;;;;;;;;1.20;99.90;;;;;;5103169;27;20004;-81
2021/12/26 11:58:45;;;;;;;;;;;1.20;99.90;;;;;;5098267;28;19997;-82
2021/12/26 12:01:16;;;;;;;;;;;1.20;99.90;;;;;;5097190;27;19924;-81
2021/12/26 12:03:43;;;;;;;;;;;1.20;99.90;;;;;;5107534;28;19946;-79
2021/12/26 12:06:22;;;;;;;;;;;1.30;99.90;;;;;;5092062;28;20301;-80
2021/12/26 12:08:49;;;;;;;;;;;1.30;99.90;;;;;;5103536;28;19987;-80
2021/12/26 12:11:16;;;;;;;;;;;1.30;99.90;;;;;;5107344;28;19924;-81
2021/12/26 12:13:47;;;;;;;;;;;1.30;99.90;;;;;;5099168;28;19932;-81
2021/12/26 12:16:22;;;;;;;;;;;1.30;99.90;;;;;;5099286;28;20269;-81
2021/12/26 12:18:50;;;;;;;;;;;1.20;99.90;;;;;;5095014;28;20032;-81
2021/12/26 12:21:17;;;;;;;;;;;1.20;99.90;;;;;;5104001;28;20023;-81
2021/12/26 12:23:56;;;;;;;;;;;1.10;99.90;;;;;;5095209;27;20007;-81
2021/12/26 12:26:38;;;;;;;;;;;1.20;99.90;;;;;;5100463;28;19934;-81
2021/12/26 12:29:05;;;;;;;;;;;1.20;99.90;;;;;;5093167;28;19994;-80
2021/12/26 12:31:32;;;;;;;;;;;1.20;99.90;;;;;;5101997;27;19932;-81
2021/12/26 12:34:03;;;;;;;;;;;1.20;99.90;;;;;;5111651;27;19936;-80
2021/12/26 12:36:30;;;;;;;;;;;1.20;99.90;;;;;;5098576;28;19924;-81
2021/12/26 12:39:12;;;;;;;;;;;1.20;99.90;;;;;;5114026;28;19998;-81
2021/12/26 12:41:52;;;;;;;;;;;1.20;99.90;;;;;;5097254;28;19928;-81
2021/12/26 12:44:25;;;;;;;;;;;1.20;99.90;;;;;;5096233;28;20022;-81
2021/12/26 12:47:14;;;;;;;;;;;1.30;99.90;;;;;;5097066;28;19928;-81
2021/12/26 12:49:46;;;;;;;;;;;1.30;99.90;;;;;;5097934;27;20027;-81
2021/12/26 12:52:32;;;;;;;;;;;1.30;99.90;;;;;;5100555;28;19924;-81
2021/12/26 12:54:58;;;;;;;;;;;1.40;99.90;;;;;;5107060;28;20480;-82
2021/12/26 12:57:36;;;;;;;;;;;1.40;99.90;;;;;;5096834;28;19930;-81
2021/12/26 13:00:22;;;;;;;;;;;1.40;99.90;;;;;;5100804;28;20022;-81
2021/12/26 13:02:50;;;;;;;;;;;1.30;99.90;;;;;;5097150;28;20919;-81
2021/12/26 13:05:24;;;;;;;;;;;1.20;99.90;;;;;;5098725;27;19928;-81
2021/12/26 13:08:00;;;;;;;;;;;1.20;99.90;;;;;;5112850;27;19953;-81
2021/12/26 13:10:27;;;;;;;;;;;1.20;99.90;;;;;;5098440;28;19932;-81
2021/12/26 13:13:03;;;;;;;;;;;1.20;99.90;;;;;;5109374;27;19924;-81
2021/12/26 13:15:30;;;;;;;;;;;1.20;99.90;;;;;;5104290;28;19938;-82
2021/12/26 13:17:58;;;;;;;;;;;1.30;99.90;;;;;;5098217;28;19936;-81
2021/12/26 13:20:27;;;;;;;;;;;1.20;99.90;;;;;;5096549;28;19938;-81
2021/12/26 13:22:56;;;;;;;;;;;1.30;99.90;;;;;;5097315;28;19928;-82
2021/12/26 13:25:27;;;;;;;;;;;1.30;99.90;;;;;;5099207;28;19930;-82
2021/12/26 13:27:54;;;;;;;;;;;1.30;99.90;;;;;;5105475;28;20039;-82
2021/12/26 13:30:25;;;;;;;;;;;1.30;99.90;;;;;;5106418;28;19962;-82
2021/12/26 13:32:52;;;;;;;;;;;1.20;99.90;;;;;;5108722;28;19924;-81
2021/12/26 13:35:28;;;;;;;;;;;1.10;99.90;;;;;;5096345;28;20018;-81
2021/12/26 13:37:55;;;;;;;;;;;1.10;99.90;;;;;;5105595;28;19938;-81
2021/12/26 13:40:23;;;;;;;;;;;1.10;99.90;;;;;;5110621;27;19924;-81
2021/12/26 13:42:50;;;;;;;;;;;1.00;99.90;;;;;;5105286;28;19971;-80
2021/12/26 13:45:27;;;;;;;;;;;1.00;99.90;;;;;;5108425;28;19928;-81
2021/12/26 13:47:58;;;;;;;;;;;1.00;99.90;;;;;;5108335;28;19927;-80
2021/12/26 13:50:25;;;;;;;;;;;0.90;99.90;;;;;;5107379;28;19938;-81
2021/12/26 13:52:59;;;;;;;;;;;0.90;99.90;;;;;;5108309;27;19924;-80
2021/12/26 13:55:26;;;;;;;;;;;0.90;99.90;;;;;;5105385;28;19931;-82
2021/12/26 13:57:59;;;;;;;;;;;0.90;99.90;;;;;;5103077;27;20336;-81
2021/12/26 14:00:26;;;;;;;;;;;0.90;99.90;;;;;;5101992;27;19924;-81
2021/12/26 14:02:53;;;;;;;;;;;0.80;99.90;;;;;;5103399;28;19930;-81
2021/12/26 14:05:21;;;;;;;;;;;0.80;99.90;;;;;;5103341;28;19928;-81
2021/12/26 14:07:53;;;;;;;;;;;0.80;99.90;;;;;;5106602;27;19931;-81
2021/12/26 14:10:21;;;;;;;;;;;0.80;99.90;;;;;;5105539;28;19947;-82
2021/12/26 14:12:49;;;;;;;;;;;0.80;99.90;;;;;;5103741;28;19966;-81
2021/12/26 14:15:34;;;;;;;;;;;0.70;99.90;;;;;;5108862;27;19973;-81
2021/12/26 14:18:09;;;;;;;;;;;0.70;99.90;;;;;;5101134;28;19930;-83
2021/12/26 14:20:56;;;;;;;;;;;0.80;99.90;;;;;;5100497;28;20023;-83
2021/12/26 14:23:26;;;;;;;;;;;0.70;99.90;;;;;;5106999;28;20374;-81
2021/12/26 14:26:00;;;;;;;;;;;0.70;99.90;;;;;;5105855;28;19985;-82
2021/12/26 14:28:27;;;;;;;;;;;0.60;99.90;;;;;;5105905;27;19924;-82
2021/12/26 14:30:57;;;;;;;;;;;0.60;99.90;;;;;;5103225;28;19986;-82
2021/12/26 14:33:31;;;;;;;;;;;0.60;99.90;;;;;;5110524;28;20397;-83
2021/12/26 14:36:00;;;;;;;;;;;0.70;99.90;;;;;;5102490;28;20015;-82
2021/12/26 14:38:28;;;;;;;;;;;0.70;99.90;;;;;;5101533;27;20553;-82